createdAt,value
2022-08-27T00:02:20.075Z,17.15
2022-08-27T00:04:51.828Z,17.12
2022-08-27T00:07:20.298Z,17.11
2022-08-27T00:09:48.926Z,17.09
2022-08-27T00:12:17.484Z,17.05
2022-08-27T00:14:46.710Z,17.02
2022-08-27T00:17:15.991Z,16.97
2022-08-27T00:19:44.428Z,16.95
2022-08-27T00:22:13.433Z,16.93
2022-08-27T00:24:46.443Z,16.93
2022-08-27T00:27:18.025Z,16.89
2022-08-27T00:29:47.939Z,16.88
2022-08-27T00:32:17.324Z,16.87
2022-08-27T00:34:45.693Z,16.86
2022-08-27T00:37:14.768Z,16.85
2022-08-27T00:39:43.237Z,16.82
2022-08-27T00:42:11.815Z,16.80
2022-08-27T00:44:40.183Z,16.78
2022-08-27T00:47:17.176Z,16.77
2022-08-27T00:49:52.633Z,16.76
2022-08-27T00:52:31.888Z,16.75
2022-08-27T00:55:18.586Z,16.73
2022-08-27T00:57:53.083Z,16.74
2022-08-27T01:00:21.616Z,16.74
2022-08-27T01:02:49.998Z,16.76
2022-08-27T01:05:23.134Z,16.76
2022-08-27T01:08:02.402Z,16.76
2022-08-27T01:10:34.546Z,16.79
2022-08-27T01:13:03.788Z,16.81
2022-08-27T01:15:33.047Z,16.81
2022-08-27T01:18:05.083Z,16.81
2022-08-27T01:20:51.734Z,16.80
2022-08-27T01:23:40.866Z,16.80
2022-08-27T01:26:11.622Z,16.82
2022-08-27T01:28:41.323Z,16.82
2022-08-27T01:31:12.583Z,16.83
2022-08-27T01:33:41.563Z,16.84
2022-08-27T01:36:10.335Z,16.83
2022-08-27T01:38:38.766Z,16.82
2022-08-27T01:41:09.787Z,16.81
2022-08-27T01:43:38.250Z,16.82
2022-08-27T01:46:06.560Z,16.81
2022-08-27T01:48:35.238Z,16.80
2022-08-27T01:51:04.513Z,16.78
2022-08-27T01:53:33.023Z,16.76
2022-08-27T01:56:01.542Z,16.74
2022-08-27T01:58:31.460Z,16.72
2022-08-27T02:01:08.708Z,16.70
2022-08-27T02:03:40.033Z,16.68
2022-08-27T02:06:11.658Z,16.67
2022-08-27T02:08:40.799Z,16.66
2022-08-27T02:11:10.075Z,16.64
2022-08-27T02:13:39.522Z,16.64
2022-08-27T02:16:08.902Z,16.63
2022-08-27T02:18:38.446Z,16.65
2022-08-27T02:21:10.979Z,16.66
2022-08-27T02:23:40.274Z,16.69
2022-08-27T02:26:08.621Z,16.71
2022-08-27T02:28:37.168Z,16.73
2022-08-27T02:31:05.525Z,16.74
2022-08-27T02:33:35.297Z,16.76
2022-08-27T02:36:04.018Z,16.79
2022-08-27T02:38:34.942Z,16.84
2022-08-27T02:41:03.701Z,16.87
2022-08-27T02:43:34.377Z,16.89
2022-08-27T02:46:05.081Z,16.91
2022-08-27T02:48:37.446Z,16.92
2022-08-27T02:51:07.362Z,16.96
2022-08-27T02:53:37.182Z,16.98
2022-08-27T02:56:07.431Z,16.95
2022-08-27T02:58:36.361Z,16.94
2022-08-27T03:01:05.394Z,16.93
2022-08-27T03:03:39.622Z,16.93
2022-08-27T03:06:09.039Z,16.92
2022-08-27T03:08:52.153Z,16.91
2022-08-27T03:11:23.575Z,16.89
2022-08-27T03:13:52.466Z,16.85
2022-08-27T03:16:21.314Z,16.83
2022-08-27T03:18:49.902Z,16.80
2022-08-27T03:21:21.278Z,16.77
2022-08-27T03:23:50.662Z,16.72
2022-08-27T03:26:19.546Z,16.71
2022-08-27T03:28:48.077Z,16.68
2022-08-27T03:31:27.052Z,16.66
2022-08-27T03:33:59.404Z,16.63
2022-08-27T03:36:29.939Z,16.61
2022-08-27T03:38:58.962Z,16.61
2022-08-27T03:41:53.994Z,16.56
2022-08-27T03:44:21.758Z,16.56
2022-08-27T03:46:51.730Z,16.55
2022-08-27T03:49:21.515Z,16.52
2022-08-27T03:51:51.648Z,16.49
2022-08-27T03:54:21.175Z,16.46
2022-08-27T03:56:49.602Z,16.42
2022-08-27T03:59:17.914Z,16.41
2022-08-27T04:01:46.493Z,16.38
2022-08-27T04:04:14.805Z,16.34
2022-08-27T04:06:43.270Z,16.33
2022-08-27T04:09:11.650Z,16.30
2022-08-27T04:11:40.272Z,16.27
2022-08-27T04:14:24.970Z,16.24
2022-08-27T04:16:56.805Z,16.20
2022-08-27T04:19:28.398Z,16.16
2022-08-27T04:22:05.887Z,16.10
2022-08-27T04:24:41.153Z,16.07
2022-08-27T04:27:11.043Z,16.02
2022-08-27T04:29:39.817Z,15.99
2022-08-27T04:32:08.918Z,15.96
2022-08-27T04:34:37.401Z,15.94
2022-08-27T04:37:05.875Z,15.91
2022-08-27T04:39:40.576Z,15.89
2022-08-27T04:42:08.962Z,15.89
2022-08-27T04:44:37.262Z,15.88
2022-08-27T04:47:08.819Z,15.88
2022-08-27T04:49:37.398Z,15.90
2022-08-27T04:52:06.149Z,15.90
2022-08-27T04:54:35.290Z,15.92
2022-08-27T04:57:05.525Z,15.96
2022-08-27T04:59:35.443Z,16.00
2022-08-27T05:02:06.460Z,16.03
2022-08-27T05:04:38.864Z,16.06
2022-08-27T05:07:09.421Z,16.09
2022-08-27T05:09:38.175Z,16.12
2022-08-27T05:12:07.756Z,16.16
2022-08-27T05:14:37.386Z,16.20
2022-08-27T05:17:05.779Z,16.25
2022-08-27T05:19:34.106Z,16.33
2022-08-27T05:22:02.606Z,16.40
2022-08-27T05:24:32.511Z,16.48
2022-08-27T05:27:02.170Z,16.57
2022-08-27T05:29:31.745Z,16.68
2022-08-27T05:32:00.161Z,16.79
2022-08-27T05:34:30.758Z,16.91
2022-08-27T05:37:00.161Z,17.02
2022-08-27T05:39:29.229Z,17.14
2022-08-27T05:41:57.809Z,17.27
2022-08-27T05:44:42.112Z,17.37
2022-08-27T05:47:11.152Z,17.45
2022-08-27T05:49:39.488Z,17.52
2022-08-27T05:52:10.477Z,17.61
2022-08-27T05:54:40.240Z,17.71
2022-08-27T05:57:08.616Z,17.80
2022-08-27T05:59:55.853Z,17.92
2022-08-27T06:02:25.856Z,18.03
2022-08-27T06:04:54.420Z,18.13
2022-08-27T06:07:23.907Z,18.23
2022-08-27T06:09:52.344Z,18.37
2022-08-27T06:12:28.296Z,18.48
2022-08-27T06:14:57.641Z,18.55
2022-08-27T06:17:26.007Z,18.61
2022-08-27T06:19:54.431Z,18.66
2022-08-27T06:22:23.659Z,18.70
2022-08-27T06:24:52.041Z,18.70
2022-08-27T06:27:20.749Z,18.67
2022-08-27T06:29:49.173Z,18.57
2022-08-27T06:32:17.596Z,18.47
2022-08-27T06:34:46.106Z,18.39
2022-08-27T06:37:14.436Z,18.29
2022-08-27T06:39:42.813Z,18.20
2022-08-27T06:42:12.728Z,18.16
2022-08-27T06:44:41.751Z,18.10
2022-08-27T06:47:10.669Z,18.05
2022-08-27T06:49:40.937Z,18.03
2022-08-27T06:52:09.462Z,18.01
2022-08-27T06:54:37.732Z,17.99
2022-08-27T06:57:06.060Z,17.98
2022-08-27T06:59:34.573Z,17.99
2022-08-27T07:02:05.150Z,18.00
2022-08-27T07:04:34.175Z,18.04
2022-08-27T07:07:06.648Z,18.07
2022-08-27T07:09:35.238Z,18.11
2022-08-27T07:12:05.219Z,18.14
2022-08-27T07:14:38.481Z,18.16
2022-08-27T07:17:11.377Z,18.17
2022-08-27T07:19:45.370Z,18.19
2022-08-27T07:22:13.789Z,18.23
2022-08-27T07:24:42.214Z,18.24
2022-08-27T07:27:11.057Z,18.27
2022-08-27T07:29:39.798Z,18.34
2022-08-27T07:32:09.225Z,18.44
2022-08-27T07:34:39.867Z,18.62
2022-08-27T07:37:09.445Z,18.68
2022-08-27T07:39:37.797Z,18.69
2022-08-27T07:42:24.861Z,18.65
2022-08-27T07:44:53.222Z,18.64
2022-08-27T07:47:21.849Z,18.63
2022-08-27T07:49:55.069Z,18.61
2022-08-27T07:52:26.686Z,18.60
2022-08-27T07:54:55.446Z,18.59
2022-08-27T07:57:23.920Z,18.59
2022-08-27T07:59:53.408Z,18.64
2022-08-27T08:02:21.808Z,18.68
2022-08-27T08:04:50.268Z,18.71
2022-08-27T08:07:18.750Z,18.77
2022-08-27T08:09:50.192Z,18.83
2022-08-27T08:12:19.405Z,18.88
2022-08-27T08:14:57.954Z,18.97
2022-08-27T08:17:26.726Z,19.06
2022-08-27T08:20:15.741Z,19.18
2022-08-27T08:22:45.836Z,19.27
2022-08-27T08:25:14.597Z,19.30
2022-08-27T08:27:43.462Z,19.27
2022-08-27T08:30:14.379Z,19.24
2022-08-27T08:32:43.401Z,19.21
2022-08-27T08:35:13.540Z,19.15
2022-08-27T08:37:46.063Z,19.08
2022-08-27T08:40:45.228Z,19.08
2022-08-27T08:43:26.867Z,19.07
2022-08-27T08:45:58.582Z,19.07
2022-08-27T08:48:30.126Z,19.08
2022-08-27T08:51:10.284Z,19.08
2022-08-27T08:54:05.207Z,19.11
2022-08-27T08:56:55.079Z,19.11
2022-08-27T08:59:31.800Z,19.13
2022-08-27T09:02:00.917Z,19.17
2022-08-27T09:04:29.889Z,19.18
2022-08-27T09:07:08.582Z,19.24
2022-08-27T09:10:07.845Z,19.28
2022-08-27T09:12:36.634Z,19.33
2022-08-27T09:15:11.375Z,19.34
2022-08-27T09:17:44.882Z,19.36
2022-08-27T09:20:14.606Z,19.38
2022-08-27T09:22:57.432Z,19.38
2022-08-27T09:25:31.773Z,19.33
2022-08-27T09:28:08.410Z,19.32
2022-08-27T09:30:43.704Z,19.31
2022-08-27T09:33:12.946Z,19.29
2022-08-27T09:35:44.786Z,19.32
2022-08-27T09:38:28.119Z,19.32
2022-08-27T09:41:00.951Z,19.30
2022-08-27T09:43:31.646Z,19.35
2022-08-27T09:46:05.359Z,19.38
2022-08-27T09:48:36.623Z,19.43
2022-08-27T09:51:09.982Z,19.54
2022-08-27T09:53:41.572Z,19.68
2022-08-27T09:56:20.838Z,19.85
2022-08-27T09:59:10.949Z,20.11
2022-08-27T10:01:53.046Z,20.27
2022-08-27T10:04:50.440Z,20.43
2022-08-27T10:07:22.868Z,20.56
2022-08-27T10:09:58.621Z,20.69
2022-08-27T10:12:44.639Z,20.76
2022-08-27T10:15:14.545Z,20.88
2022-08-27T10:18:02.583Z,20.88
2022-08-27T10:20:31.023Z,20.82
2022-08-27T10:23:26.594Z,20.72
2022-08-27T10:26:04.664Z,20.61
2022-08-27T10:28:40.349Z,20.52
2022-08-27T10:31:17.545Z,20.51
2022-08-27T10:34:16.431Z,20.59
2022-08-27T10:36:52.229Z,20.66
2022-08-27T10:39:40.291Z,20.76
2022-08-27T10:42:23.803Z,20.76
2022-08-27T10:45:08.013Z,20.84
2022-08-27T10:48:11.002Z,20.87
2022-08-27T10:50:57.775Z,20.80
2022-08-27T10:54:08.006Z,20.75
2022-08-27T10:56:44.306Z,20.74
2022-08-27T10:59:28.771Z,20.87
2022-08-27T11:02:06.525Z,20.98
2022-08-27T11:04:49.169Z,21.20
2022-08-27T11:07:23.662Z,21.29
2022-08-27T11:10:10.679Z,21.35
2022-08-27T11:12:44.513Z,21.46
2022-08-27T11:15:21.065Z,21.47
2022-08-27T11:18:11.429Z,21.54
2022-08-27T11:20:57.691Z,21.62
2022-08-27T11:23:46.724Z,21.74
2022-08-27T11:26:15.982Z,21.86
2022-08-27T11:28:52.579Z,21.95
2022-08-27T11:31:21.141Z,22.05
2022-08-27T11:34:15.316Z,22.09
2022-08-27T11:37:08.339Z,22.02
2022-08-27T11:39:43.324Z,21.85
2022-08-27T11:42:33.524Z,21.85
2022-08-27T11:45:33.195Z,21.94
2022-08-27T11:48:15.169Z,21.99
2022-08-27T11:50:54.633Z,21.97
2022-08-27T11:53:35.587Z,21.90
2022-08-27T11:56:44.232Z,21.95
2022-08-27T11:59:28.466Z,21.94
2022-08-27T12:02:16.129Z,21.94
2022-08-27T12:04:48.855Z,22.03
2022-08-27T12:07:17.992Z,22.07
2022-08-27T12:10:16.992Z,22.10
2022-08-27T12:13:02.720Z,22.19
2022-08-27T12:16:00.455Z,22.04
2022-08-27T12:18:37.911Z,21.85
2022-08-27T12:21:24.025Z,21.76
2022-08-27T12:24:14.338Z,21.70
2022-08-27T12:27:01.824Z,21.70
2022-08-27T12:29:43.882Z,21.70
2022-08-27T12:32:26.690Z,21.61
2022-08-27T12:35:37.609Z,21.51
2022-08-27T12:38:22.913Z,21.51
2022-08-27T12:41:00.521Z,21.59
2022-08-27T12:43:33.596Z,21.58
2022-08-27T12:46:06.826Z,21.60
2022-08-27T12:48:44.866Z,21.50
2022-08-27T12:51:21.247Z,21.33
2022-08-27T12:54:29.951Z,21.16
2022-08-27T12:57:28.890Z,21.07
2022-08-27T13:00:37.833Z,20.92
2022-08-27T13:03:07.038Z,20.77
2022-08-27T13:05:42.659Z,20.70
2022-08-27T13:08:27.985Z,20.66
2022-08-27T13:10:58.013Z,20.61
2022-08-27T13:13:26.646Z,20.52
2022-08-27T13:15:59.469Z,20.48
2022-08-27T13:18:33.833Z,20.44
2022-08-27T13:21:25.524Z,20.35
2022-08-27T13:24:04.105Z,20.40
2022-08-27T13:26:37.605Z,20.56
2022-08-27T13:29:09.374Z,20.72
2022-08-27T13:31:38.686Z,20.71
2022-08-27T13:34:07.757Z,20.68
2022-08-27T13:36:54.273Z,20.68
2022-08-27T13:39:23.048Z,20.67
2022-08-27T13:41:52.778Z,20.64
2022-08-27T13:44:25.443Z,20.60
2022-08-27T13:47:05.285Z,20.48
2022-08-27T13:49:39.868Z,20.43
2022-08-27T13:52:29.357Z,20.51
2022-08-27T13:55:16.583Z,20.50
2022-08-27T13:57:52.045Z,20.55
2022-08-27T14:00:27.305Z,20.64
2022-08-27T14:02:56.646Z,20.70
2022-08-27T14:05:25.068Z,20.62
2022-08-27T14:07:53.517Z,20.56
2022-08-27T14:10:37.073Z,20.52
2022-08-27T14:13:13.795Z,20.52
2022-08-27T14:15:45.919Z,20.59
2022-08-27T14:18:58.294Z,20.75
2022-08-27T14:21:24.241Z,20.90
2022-08-27T14:23:54.083Z,20.96
2022-08-27T14:26:23.613Z,20.90
2022-08-27T14:28:52.169Z,20.78
2022-08-27T14:31:22.819Z,20.73
2022-08-27T14:33:54.126Z,20.54
2022-08-27T14:36:24.392Z,20.51
2022-08-27T14:38:54.185Z,20.62
2022-08-27T14:41:24.806Z,20.74
2022-08-27T14:43:53.392Z,20.83
2022-08-27T14:46:28.894Z,20.95
2022-08-27T14:49:00.511Z,20.96
2022-08-27T14:51:30.986Z,20.93
2022-08-27T14:53:59.576Z,20.83
2022-08-27T14:56:28.037Z,20.72
2022-08-27T14:58:57.829Z,20.62
2022-08-27T15:01:27.619Z,20.48
2022-08-27T15:03:57.463Z,20.36
2022-08-27T15:06:27.221Z,20.28
2022-08-27T15:08:56.304Z,20.16
2022-08-27T15:11:28.457Z,20.04
2022-08-27T15:13:58.629Z,19.96
2022-08-27T15:16:45.299Z,19.85
2022-08-27T15:19:15.453Z,19.81
2022-08-27T15:21:47.416Z,19.78
2022-08-27T15:24:26.148Z,19.74
2022-08-27T15:26:59.496Z,19.75
2022-08-27T15:29:27.866Z,19.82
2022-08-27T15:31:57.183Z,19.88
2022-08-27T15:34:25.493Z,19.88
2022-08-27T15:36:54.156Z,19.85
2022-08-27T15:39:23.158Z,19.80
2022-08-27T15:42:05.847Z,19.71
2022-08-27T15:44:38.730Z,19.61
2022-08-27T15:47:08.168Z,19.53
2022-08-27T15:49:36.587Z,19.46
2022-08-27T15:52:05.304Z,19.47
2022-08-27T15:54:34.454Z,19.50
2022-08-27T15:57:03.895Z,19.51
2022-08-27T15:59:33.136Z,19.45
2022-08-27T16:02:03.518Z,19.46
2022-08-27T16:04:32.682Z,19.50
2022-08-27T16:07:01.251Z,19.45
2022-08-27T16:09:29.640Z,19.43
2022-08-27T16:11:58.446Z,19.36
2022-08-27T16:14:26.845Z,19.31
2022-08-27T16:16:57.606Z,19.24
2022-08-27T16:19:28.812Z,19.18
2022-08-27T16:21:57.146Z,19.13
2022-08-27T16:24:25.718Z,19.08
2022-08-27T16:26:54.046Z,19.03
2022-08-27T16:29:22.381Z,18.97
2022-08-27T16:31:55.285Z,18.95
2022-08-27T16:34:27.980Z,18.90
2022-08-27T16:36:56.748Z,18.84
2022-08-27T16:39:27.351Z,18.84
2022-08-27T16:42:00.756Z,18.80
2022-08-27T16:44:29.739Z,18.74
2022-08-27T16:46:58.065Z,18.78
2022-08-27T16:49:45.000Z,18.81
2022-08-27T16:52:13.336Z,18.84
2022-08-27T16:54:42.145Z,18.83
2022-08-27T16:57:11.344Z,18.83
2022-08-27T16:59:43.278Z,18.77
2022-08-27T17:02:21.541Z,18.70
2022-08-27T17:05:01.371Z,18.63
2022-08-27T17:07:44.080Z,18.54
2022-08-27T17:10:19.401Z,18.53
2022-08-27T17:12:48.189Z,18.47
2022-08-27T17:15:17.953Z,18.42
2022-08-27T17:17:46.638Z,18.42
2022-08-27T17:20:15.653Z,18.46
2022-08-27T17:22:44.197Z,18.47
2022-08-27T17:25:12.734Z,18.45
2022-08-27T17:27:41.365Z,18.47
2022-08-27T17:30:10.385Z,18.44
2022-08-27T17:32:42.360Z,18.39
2022-08-27T17:35:11.883Z,18.34
2022-08-27T17:37:41.069Z,18.29
2022-08-27T17:40:10.383Z,18.25
2022-08-27T17:42:39.880Z,18.22
2022-08-27T17:45:08.891Z,18.17
2022-08-27T17:47:37.223Z,18.14
2022-08-27T17:50:05.926Z,18.12
2022-08-27T17:52:38.234Z,18.12
2022-08-27T17:55:08.580Z,18.07
2022-08-27T17:57:40.754Z,18.05
2022-08-27T18:00:14.189Z,18.01
2022-08-27T18:02:46.193Z,17.95
2022-08-27T18:05:18.499Z,17.95
2022-08-27T18:07:49.230Z,17.93
2022-08-27T18:10:23.895Z,17.92
2022-08-27T18:12:55.463Z,17.90
2022-08-27T18:15:29.326Z,17.88
2022-08-27T18:17:58.012Z,17.89
2022-08-27T18:20:28.621Z,17.86
2022-08-27T18:22:56.912Z,17.85
2022-08-27T18:25:29.106Z,17.82
2022-08-27T18:28:03.812Z,17.80
2022-08-27T18:30:32.830Z,17.74
2022-08-27T18:33:02.585Z,17.71
2022-08-27T18:35:33.126Z,17.68
2022-08-27T18:38:01.911Z,17.62
2022-08-27T18:40:35.714Z,17.61
2022-08-27T18:43:05.357Z,17.61
2022-08-27T18:45:36.239Z,17.60
2022-08-27T18:48:23.827Z,17.59
2022-08-27T18:50:58.626Z,17.56
2022-08-27T18:53:30.480Z,17.55
2022-08-27T18:56:01.191Z,17.50
2022-08-27T18:58:32.974Z,17.48
2022-08-27T19:01:02.925Z,17.48
2022-08-27T19:03:36.108Z,17.48
2022-08-27T19:06:08.740Z,17.48
2022-08-27T19:08:39.855Z,17.46
2022-08-27T19:11:08.492Z,17.44
2022-08-27T19:13:37.286Z,17.40
2022-08-27T19:16:11.899Z,17.34
2022-08-27T19:18:42.675Z,17.30
2022-08-27T19:21:11.241Z,17.26
2022-08-27T19:23:43.044Z,17.22
2022-08-27T19:26:19.522Z,17.22
2022-08-27T19:28:48.258Z,17.21
2022-08-27T19:31:16.801Z,17.22
2022-08-27T19:33:45.740Z,17.21
2022-08-27T19:36:17.514Z,17.21
2022-08-27T19:38:48.978Z,17.21
2022-08-27T19:41:17.974Z,17.22
2022-08-27T19:43:46.465Z,17.22
2022-08-27T19:46:19.908Z,17.21
2022-08-27T19:48:48.309Z,17.19
2022-08-27T19:51:18.084Z,17.14
2022-08-27T19:53:46.584Z,17.11
2022-08-27T19:56:15.227Z,17.07
2022-08-27T19:58:44.651Z,17.01
2022-08-27T20:01:13.136Z,16.99
2022-08-27T20:03:41.661Z,16.97
2022-08-27T20:06:10.197Z,16.95
2022-08-27T20:08:38.605Z,16.95
2022-08-27T20:11:06.986Z,16.95
2022-08-27T20:13:35.435Z,16.96
2022-08-27T20:16:06.671Z,16.95
2022-08-27T20:18:41.983Z,16.96
2022-08-27T20:21:10.287Z,16.95
2022-08-27T20:23:38.688Z,16.94
2022-08-27T20:26:07.960Z,16.94
2022-08-27T20:28:40.296Z,16.95
2022-08-27T20:31:10.216Z,16.92
2022-08-27T20:33:38.889Z,16.91
2022-08-27T20:36:08.611Z,16.92
2022-08-27T20:38:37.234Z,16.94
2022-08-27T20:41:06.727Z,16.94
2022-08-27T20:43:36.075Z,16.94
2022-08-27T20:46:05.881Z,16.94
2022-08-27T20:48:38.583Z,16.95
2022-08-27T20:51:06.990Z,16.94
2022-08-27T20:53:35.463Z,16.94
2022-08-27T20:56:03.794Z,16.95
2022-08-27T20:58:50.525Z,16.96
2022-08-27T21:01:19.442Z,16.98
2022-08-27T21:03:47.991Z,16.99
2022-08-27T21:06:24.982Z,16.99
2022-08-27T21:08:54.807Z,16.99
2022-08-27T21:11:24.151Z,16.98
2022-08-27T21:13:56.508Z,16.96
2022-08-27T21:16:26.216Z,16.92
2022-08-27T21:18:55.644Z,16.87
2022-08-27T21:21:24.261Z,16.84
2022-08-27T21:23:53.743Z,16.83
2022-08-27T21:26:23.232Z,16.81
2022-08-27T21:28:55.446Z,16.83
2022-08-27T21:31:25.581Z,16.85
2022-08-27T21:33:54.275Z,16.85
2022-08-27T21:36:22.714Z,16.85
2022-08-27T21:38:51.106Z,16.84
2022-08-27T21:41:20.421Z,16.84
2022-08-27T21:43:50.017Z,16.82
2022-08-27T21:46:22.272Z,16.80
2022-08-27T21:48:58.662Z,16.75
2022-08-27T21:51:27.605Z,16.72
2022-08-27T21:53:58.670Z,16.69
2022-08-27T21:56:27.859Z,16.67
2022-08-27T21:58:56.250Z,16.68
2022-08-27T22:01:24.682Z,16.66
2022-08-27T22:03:53.197Z,16.66
2022-08-27T22:06:21.617Z,16.64
2022-08-27T22:08:52.505Z,16.62
2022-08-27T22:11:24.130Z,16.58
2022-08-27T22:13:53.414Z,16.55
2022-08-27T22:16:22.082Z,16.56
2022-08-27T22:18:54.950Z,16.56
2022-08-27T22:21:25.041Z,16.58
2022-08-27T22:23:53.537Z,16.59
2022-08-27T22:26:22.229Z,16.60
2022-08-27T22:28:51.671Z,16.59
2022-08-27T22:31:20.520Z,16.56
2022-08-27T22:33:48.919Z,16.53
2022-08-27T22:36:19.851Z,16.51
2022-08-27T22:38:50.818Z,16.51
2022-08-27T22:41:19.361Z,16.50
2022-08-27T22:43:49.494Z,16.47
2022-08-27T22:46:17.877Z,16.45
2022-08-27T22:48:46.357Z,16.43
2022-08-27T22:51:14.688Z,16.38
2022-08-27T22:53:43.203Z,16.35
2022-08-27T22:56:12.703Z,16.34
2022-08-27T22:58:45.840Z,16.33
2022-08-27T23:01:21.869Z,16.33
2022-08-27T23:03:50.248Z,16.36
2022-08-27T23:06:19.332Z,16.36
2022-08-27T23:08:48.004Z,16.36
2022-08-27T23:11:16.750Z,16.34
2022-08-27T23:13:47.103Z,16.32
2022-08-27T23:16:16.005Z,16.32
2022-08-27T23:18:46.224Z,16.29
2022-08-27T23:21:17.741Z,16.28
2022-08-27T23:23:46.485Z,16.28
2022-08-27T23:26:33.933Z,16.28
2022-08-27T23:29:02.521Z,16.27
2022-08-27T23:31:32.912Z,16.26
2022-08-27T23:34:01.864Z,16.26
2022-08-27T23:36:30.383Z,16.24
2022-08-27T23:38:58.774Z,16.25
2022-08-27T23:41:28.341Z,16.22
2022-08-27T23:43:57.087Z,16.22
2022-08-27T23:46:25.913Z,16.21
2022-08-27T23:48:54.834Z,16.20
2022-08-27T23:51:23.371Z,16.17
2022-08-27T23:53:51.701Z,16.16
2022-08-27T23:56:21.981Z,16.17
2022-08-27T23:58:59.864Z,16.16
